Verden, Oklahoma
Current Conditions -  °F | °C
As of 2:35 AM on Monday 26 Jan 2015 (Local Time) from KCHK Reporting Station
Clear Clear  
Wind Chill:   Ceiling: Unl
Heat Index:   Visibility: 10mi
Dew Point: -1°   Wind: 3mph
Humidity: 93%   Direction: 280°W
Pressure: 30.2"   Gusts: NA
Location:  35.08°N, 98.09°W
Report Text: KCHK 260835Z AUTO 28003KT 10SM CLR 00/M01 A3020 RMK AO2
Loading
Personal Weather Stations






























Interactive Weather Map New forecast layout! Learn more

10-Day Weather Forecast

Advertisements
Track Severe Weather on mobile